Weather History for KJKA - April, 2013

Change the Weather History Date:

Friday, April 19, 2013

  Actual Average (KPNS) Record (KPNS)
Temperature  
Mean Temperature 62 °F 67 °F  
Max Temperature 73 °F 76 °F 87 °F (1976)
Min Temperature 50 °F 58 °F 41 °F (1983)
Degree Days  
Heating Degree Days 4 1  
Month to date heating degree days 43  
Since 1 July heating degree days 1527  
Cooling Degree Days 0 4  
Month to date cooling degree days 49  
Year to date cooling degree days 96  
Growing Degree Days 12 (Base 50)    
Moisture  
Dew Point 54 °F    
Average Humidity 82    
Maximum Humidity 94    
Minimum Humidity 67    
Precipitation  
Precipitation 0.14 in 0.14 in 3.46 in (1907)
Month to date precipitation 2.87  
Year to date precipitation 18.37  
Sea Level Pressure  
Sea Level Pressure 30.00 in    
Wind  
Wind Speed 10 mph (WNW)    
Max Wind Speed 18 mph    
Max Gust Speed 29 mph    
Visibility 9 miles    
Events Rain , Thunderstorm    
T = Trace of Precipitation, MM = Missing Value Source: NWS Daily Summary

Daily Weather History Graph

Daily Weather History Graph

Search for Another Location

Airport or City:

Trip Planner

Search our weather history database for the weather conditions in past years. The results will help you decide how hot, cold, wet, or windy it might be!

Date:

Astronomy

Apr. 19, 2013 Rise Set
Actual Time 6:18 AM CDT 7:20 PM CDT
Civil Twilight 5:54 AM CDT 7:45 PM CDT
Nautical Twilight 5:24 AM CDT 8:15 PM CDT
Astronomical Twilight 4:54 AM CDT 8:45 PM CDT
Moon 1:30 PM CDT (4/19) 2:07 AM CDT (4/19)
Length of Visible Light 13h 51m
Length of Day
13h 01m
First Quarter, 62% of the Moon is Illuminated
Apr 19
First Quarter
Apr 25
Full
May 2
Last Quarter
May 9
New
May 17
First Quarter

Hourly Weather History & Observations

Time (CDT) Temp. Dew Point Humidity Pressure Visibility Wind Dir Wind Speed Gust Speed Precip Events Conditions
12:15 AM 73.4 °F 69.8 °F 88% 29.89 in 7.0 mi SSE 10.4 mph - N/A   Unknown
12:35 AM 73.4 °F 69.8 °F 88% 29.89 in 7.0 mi SSE 9.2 mph - N/A   Unknown
12:55 AM 71.6 °F 69.8 °F 94% 29.89 in 7.0 mi South 8.1 mph - N/A   Unknown
1:15 AM 73.4 °F 69.8 °F 88% 29.88 in 7.0 mi South 8.1 mph 16.1 mph N/A   Unknown
1:35 AM 73.4 °F 69.8 °F 88% 29.87 in 7.0 mi SSE 8.1 mph - N/A   Unknown
1:55 AM 73.4 °F 69.8 °F 88% 29.86 in 5.0 mi South 9.2 mph - N/A   Mist
2:15 AM 73.4 °F 69.8 °F 88% 29.85 in 5.0 mi South 10.4 mph 16.1 mph N/A   Mist
2:35 AM 73.4 °F 69.8 °F 88% 29.85 in 5.0 mi South 6.9 mph 18.4 mph N/A   Mist
2:55 AM 73.4 °F 69.8 °F 88% 29.85 in 5.0 mi South 13.8 mph 17.3 mph N/A   Mist
3:15 AM 73.4 °F 69.8 °F 88% 29.85 in 7.0 mi South 12.7 mph 17.3 mph N/A   Unknown
3:35 AM 73.4 °F 69.8 °F 88% 29.85 in 7.0 mi South 15.0 mph - N/A   Unknown
3:55 AM 73.4 °F 69.8 °F 88% 29.84 in 7.0 mi South 13.8 mph 20.7 mph N/A   Unknown
4:15 AM 73.4 °F 69.8 °F 88% 29.84 in 7.0 mi South 12.7 mph 17.3 mph N/A   Unknown
4:35 AM 73.4 °F 69.8 °F 88% 29.84 in 5.0 mi South 15.0 mph 18.4 mph N/A   Mist
4:55 AM 73.4 °F 69.8 °F 88% 29.84 in 7.0 mi South 11.5 mph - N/A   Unknown
5:15 AM 73.4 °F 69.8 °F 88% 29.85 in 7.0 mi SSW 10.4 mph 20.7 mph N/A   Unknown
5:55 AM 73.4 °F 69.8 °F 88% 29.84 in 7.0 mi South 8.1 mph - N/A   Unknown
6:15 AM 73.4 °F 69.8 °F 88% 29.84 in 7.0 mi South 8.1 mph - N/A   Unknown
6:35 AM 73.4 °F 69.8 °F 88% 29.85 in 5.0 mi SSW 9.2 mph 16.1 mph N/A Thunderstorm Mist
6:55 AM 73.4 °F 69.8 °F 88% 29.86 in 5.0 mi South 12.7 mph 18.4 mph N/A   Mist
7:15 AM 69.8 °F 62.6 °F 78% 29.89 in 7.0 mi WNW 18.4 mph 24.2 mph N/A Rain Light Rain
7:35 AM 62.6 °F 60.8 °F 94% 29.92 in 10.0 mi NW 15.0 mph 23.0 mph 0.02 in Rain Light Rain
7:55 AM 60.8 °F 59.0 °F 94% 29.92 in 10.0 mi NNW 12.7 mph 19.6 mph 0.02 in   Unknown
8:15 AM 57.2 °F 53.6 °F 88% 29.95 in 10.0 mi NNW 16.1 mph 24.2 mph N/A   Unknown
8:35 AM 59.0 °F 51.8 °F 77% 29.97 in 10.0 mi NW 13.8 mph 24.2 mph N/A   Unknown
8:55 AM 59.0 °F 51.8 °F 77% 30.00 in 10.0 mi NW 15.0 mph 24.2 mph N/A   Unknown
9:15 AM 59.0 °F 50.0 °F 72% 30.01 in 10.0 mi NNW 18.4 mph 28.8 mph N/A   Unknown
9:55 AM 55.4 °F 50.0 °F 82% 30.02 in 10.0 mi NW 15.0 mph 21.9 mph N/A   Unknown
10:15 AM 57.2 °F 48.2 °F 72% 30.02 in 10.0 mi NW 10.4 mph 21.9 mph N/A   Unknown
10:35 AM 57.2 °F 46.4 °F 67% 30.02 in 10.0 mi NNW 15.0 mph 25.3 mph N/A   Unknown
10:55 AM 57.2 °F 46.4 °F 67% 30.03 in 10.0 mi NNW 18.4 mph 25.3 mph N/A   Unknown
11:15 AM 57.2 °F 46.4 °F 67% 30.01 in 10.0 mi North 10.4 mph 17.3 mph N/A   Unknown
11:35 AM 57.2 °F 46.4 °F 67% 30.02 in 10.0 mi NNW 13.8 mph 19.6 mph N/A   Unknown
11:55 AM 57.2 °F 46.4 °F 67% 30.01 in 10.0 mi NNW 11.5 mph 16.1 mph N/A   Unknown
12:15 PM 57.2 °F 46.4 °F 67% 30.02 in 10.0 mi NW 11.5 mph 16.1 mph N/A   Unknown
12:35 PM 55.4 °F 48.2 °F 77% 30.02 in 10.0 mi NNW 9.2 mph - N/A Rain Light Rain
12:55 PM 55.4 °F 50.0 °F 82% 30.04 in 10.0 mi NW 11.5 mph 19.6 mph N/A   Unknown
1:15 PM 55.4 °F 48.2 °F 77% 30.06 in 10.0 mi NW 13.8 mph 23.0 mph N/A   Unknown
1:35 PM 55.4 °F 46.4 °F 72% 30.02 in 10.0 mi North 10.4 mph 21.9 mph N/A   Unknown
1:55 PM 53.6 °F 46.4 °F 77% 30.03 in 10.0 mi North 11.5 mph 18.4 mph N/A Rain Light Rain
2:15 PM 53.6 °F 46.4 °F 77% 30.02 in 10.0 mi NNW 10.4 mph 17.3 mph N/A   Unknown
2:35 PM 55.4 °F 44.6 °F 67% 30.02 in 10.0 mi NNW 9.2 mph 18.4 mph N/A   Unknown
2:55 PM 55.4 °F 44.6 °F 67% 30.02 in 10.0 mi NNW 8.1 mph - N/A   Unknown
3:15 PM 53.6 °F 42.8 °F 67% 30.01 in 10.0 mi NNW 13.8 mph - N/A   Unknown
3:35 PM 53.6 °F 42.8 °F 67% 30.04 in 10.0 mi NW 8.1 mph 18.4 mph N/A Rain Light Rain
3:55 PM 51.8 °F 44.6 °F 76% 30.03 in 10.0 mi North 3.5 mph - 0.02 in Rain Light Rain
4:15 PM 51.8 °F 46.4 °F 82% 30.07 in 10.0 mi WNW 6.9 mph - 0.01 in Rain Light Rain
4:35 PM 50.0 °F 44.6 °F 82% 30.03 in 10.0 mi North 6.9 mph - 0.01 in Rain Light Rain
4:55 PM 50.0 °F 44.6 °F 82% 30.06 in 10.0 mi NNW 5.8 mph - 0.02 in Rain Light Rain
5:15 PM 50.0 °F 44.6 °F 82% 30.03 in 10.0 mi North 5.8 mph - N/A Rain Light Rain
5:35 PM 50.0 °F 44.6 °F 82% 30.05 in 10.0 mi NW 5.8 mph - 0.01 in Rain Light Rain
5:55 PM 50.0 °F 46.4 °F 87% 30.07 in 10.0 mi North - - 0.02 in Rain Light Rain
6:15 PM 50.0 °F 46.4 °F 87% 30.09 in 10.0 mi WNW 4.6 mph - N/A Rain Light Rain
6:35 PM 50.0 °F 46.4 °F 87% 30.08 in 10.0 mi Calm Calm - 0.04 in Rain Light Rain
6:55 PM 50.0 °F 46.4 °F 87% 30.08 in 10.0 mi NW 3.5 mph - 0.05 in Rain Light Rain
7:15 PM 50.0 °F 46.4 °F 87% 30.09 in 10.0 mi WNW 3.5 mph - 0.01 in Rain Light Rain
7:35 PM 50.0 °F 46.4 °F 87% 30.09 in 10.0 mi NW 3.5 mph - 0.01 in   Unknown
7:55 PM 50.0 °F 46.4 °F 87% 30.11 in 10.0 mi NW 3.5 mph - 0.01 in   Unknown
8:15 PM 50.0 °F 46.4 °F 87% 30.13 in 10.0 mi Calm Calm - N/A   Unknown
8:35 PM 50.0 °F 46.4 °F 87% 30.12 in 10.0 mi Calm Calm - N/A   Unknown
8:55 PM 50.0 °F 46.4 °F 87% 30.12 in 10.0 mi North 3.5 mph - N/A   Unknown
9:15 PM 50.0 °F 46.4 °F 87% 30.15 in 10.0 mi Calm Calm - N/A   Unknown
9:35 PM 50.0 °F 46.4 °F 87% 30.15 in 10.0 mi Calm Calm - N/A   Unknown
9:55 PM 50.0 °F 46.4 °F 87% 30.16 in 10.0 mi Calm Calm - N/A   Unknown
10:15 PM 50.0 °F 46.4 °F 87% 30.16 in 10.0 mi Calm Calm - N/A   Unknown
10:35 PM 50.0 °F 46.4 °F 87% 30.17 in 10.0 mi Calm Calm - N/A   Unknown
10:55 PM 50.0 °F 46.4 °F 87% 30.16 in 10.0 mi Calm Calm - N/A   Unknown
11:15 PM 50.0 °F 46.4 °F 87% 30.18 in 10.0 mi Calm Calm - N/A   Unknown
11:35 PM 50.0 °F 46.4 °F 87% 30.18 in 10.0 mi Calm Calm - N/A   Unknown
11:55 PM 50.0 °F 46.4 °F 87% 30.18 in 10.0 mi Calm Calm - N/A   Unknown